ESOK 241020Z 23009KT 9999 -DZ BKN015 OVC020 08/06 Q0998